Time,TemperatureF,DewpointF,PressureIn,WindDirection,WindDirectionDegrees,WindSpeedMPH,WindSpeedGustMPH,Humidity,HourlyPrecipIn,Conditions,Clouds,dailyrainin,SoftwareType,DateUTC
2013-03-05 00:00:00,33.6,23.1,27.11,SSE,158,2.5,2.5,65,0.00,,---,0.00,VWS V14.01,2013-03-05 05:00:00,
2013-03-05 00:02:00,33.6,23.9,27.11,SW,225,0.9,2.7,67,0.00,,---,0.00,VWS V14.01,2013-03-05 05:02:00,
2013-03-05 00:04:00,33.4,23.3,27.11,NNW,338,2.5,2.5,66,0.00,,---,0.00,VWS V14.01,2013-03-05 05:04:00,
2013-03-05 00:05:00,33.4,23.3,27.11,WSW,248,0.0,2.5,66,0.00,,---,0.00,VWS V14.01,2013-03-05 05:05:00,
2013-03-05 00:06:00,33.4,23.3,27.11,SSW,202,1.6,2.5,66,0.00,,---,0.00,VWS V14.01,2013-03-05 05:06:00,
2013-03-05 00:08:00,33.4,23.7,27.11,WNW,292,2.5,2.5,67,0.00,,---,0.00,VWS V14.01,2013-03-05 05:08:00,
2013-03-05 00:10:00,33.4,23.3,27.11,ENE,68,1.1,1.1,66,0.00,,---,0.00,VWS V14.01,2013-03-05 05:10:00,
2013-03-05 00:12:00,33.4,23.3,27.11,North,0,0.0,1.1,66,0.00,,---,0.00,VWS V14.01,2013-03-05 05:12:00,
2013-03-05 00:14:00,33.3,22.4,27.11,NNW,338,1.6,1.6,64,0.00,,---,0.00,VWS V14.01,2013-03-05 05:14:00,
2013-03-05 00:15:00,33.3,22.4,27.11,North,0,0.0,2.7,64,0.00,,---,0.00,VWS V14.01,2013-03-05 05:15:00,
2013-03-05 00:16:00,33.3,22.4,27.11,North,0,0.0,2.7,64,0.00,,---,0.00,VWS V14.01,2013-03-05 05:16:00,
2013-03-05 00:18:00,33.3,23.1,27.11,SSE,158,0.9,2.9,66,0.00,,---,0.00,VWS V14.01,2013-03-05 05:18:00,
2013-03-05 00:20:00,33.3,22.0,27.11,WSW,248,0.9,2.5,63,0.00,,---,0.00,VWS V14.01,2013-03-05 05:20:00,
2013-03-05 00:22:00,33.3,22.4,27.11,South,180,1.3,2.5,64,0.00,,---,0.00,VWS V14.01,2013-03-05 05:22:00,
2013-03-05 00:24:00,33.3,22.4,27.11,ENE,68,0.0,1.3,64,0.00,,---,0.00,VWS V14.01,2013-03-05 05:24:00,
2013-03-05 00:25:00,33.1,21.9,27.11,WSW,248,2.0,2.7,63,0.00,,---,0.00,VWS V14.01,2013-03-05 05:25:00,
2013-03-05 00:26:00,33.1,22.6,27.11,WSW,248,2.0,2.7,65,0.00,,---,0.00,VWS V14.01,2013-03-05 05:26:00,
2013-03-05 00:28:00,33.1,23.3,27.11,North,0,3.4,3.4,67,0.00,,---,0.00,VWS V14.01,2013-03-05 05:28:00,
2013-03-05 00:30:00,33.1,23.7,27.11,WSW,248,2.0,2.0,68,0.00,,---,0.00,VWS V14.01,2013-03-05 05:30:00,
2013-03-05 00:32:00,33.1,24.0,27.11,North,0,1.3,2.5,69,0.00,,---,0.00,VWS V14.01,2013-03-05 05:32:00,
2013-03-05 00:34:00,33.1,23.3,27.08,NNE,22,0.0,2.5,67,0.00,,---,0.00,VWS V14.01,2013-03-05 05:34:00,
2013-03-05 00:35:00,33.1,24.0,27.08,WNW,292,2.7,3.1,69,0.00,,---,0.00,VWS V14.01,2013-03-05 05:35:00,
2013-03-05 00:36:00,33.1,24.0,27.08,WNW,292,1.6,3.1,69,0.00,,---,0.00,VWS V14.01,2013-03-05 05:36:00,
2013-03-05 00:38:00,33.1,23.7,27.08,WNW,292,0.0,2.0,68,0.00,,---,0.00,VWS V14.01,2013-03-05 05:38:00,
2013-03-05 00:40:00,33.1,23.0,27.08,NNE,22,2.5,2.5,66,0.00,,---,0.00,VWS V14.01,2013-03-05 05:40:00,
2013-03-05 00:42:00,31.8,21.8,27.11,South,180,0.0,1.6,66,0.00,,---,0.00,VWS V14.01,2013-03-05 05:42:00,
2013-03-05 00:44:00,33.1,23.3,27.08,SE,135,1.1,3.6,67,0.00,,---,0.00,VWS V14.01,2013-03-05 05:44:00,
2013-03-05 00:45:00,33.1,23.0,27.08,ENE,68,2.0,2.5,66,0.00,,---,0.00,VWS V14.01,2013-03-05 05:45:00,
2013-03-05 00:46:00,33.1,23.0,27.08,ENE,68,2.0,2.5,66,0.00,,---,0.00,VWS V14.01,2013-03-05 05:46:00,
2013-03-05 00:48:00,33.1,22.6,27.11,SSE,158,2.0,2.0,65,0.00,,---,0.00,VWS V14.01,2013-03-05 05:48:00,
2013-03-05 00:50:00,33.1,23.3,27.11,WNW,292,1.3,2.0,67,0.00,,---,0.00,VWS V14.01,2013-03-05 05:50:00,
2013-03-05 00:52:00,32.9,23.2,27.11,North,0,0.9,2.0,67,0.00,,---,0.00,VWS V14.01,2013-03-05 05:52:00,
2013-03-05 00:54:00,32.9,22.8,27.11,WNW,292,2.9,2.9,66,0.00,,---,0.00,VWS V14.01,2013-03-05 05:54:00,
2013-03-05 00:55:00,33.1,23.7,27.11,North,0,1.1,2.9,68,0.00,,---,0.00,VWS V14.01,2013-03-05 05:55:00,
2013-03-05 00:56:00,33.1,23.7,27.11,North,0,1.1,2.9,68,0.00,,---,0.00,VWS V14.01,2013-03-05 05:56:00,
2013-03-05 00:58:00,33.1,23.3,27.11,ESE,112,2.0,2.5,67,0.00,,---,0.00,VWS V14.01,2013-03-05 05:58:00,
2013-03-05 01:00:00,33.1,22.6,27.11,NE,45,0.0,0.0,65,0.00,,---,0.00,VWS V14.01,2013-03-05 06:00:00,
2013-03-05 01:02:00,33.1,22.6,27.11,ENE,68,0.0,0.0,65,0.00,,---,0.00,VWS V14.01,2013-03-05 06:02:00,
2013-03-05 01:04:00,32.9,22.8,27.11,ENE,68,2.5,2.5,66,0.00,,---,0.00,VWS V14.01,2013-03-05 06:04:00,
2013-03-05 01:05:00,32.9,22.1,27.11,North,0,2.2,2.5,64,0.00,,---,0.00,VWS V14.01,2013-03-05 06:05:00,
2013-03-05 01:06:00,32.9,22.1,27.11,NNW,338,2.0,2.5,64,0.00,,---,0.00,VWS V14.01,2013-03-05 06:06:00,
2013-03-05 01:08:00,31.1,22.5,27.11,NW,315,1.6,1.6,70,0.00,,---,0.00,VWS V14.01,2013-03-05 06:08:00,
2013-03-05 01:10:00,32.7,23.7,27.11,SSW,202,2.2,2.5,69,0.00,,---,0.00,VWS V14.01,2013-03-05 06:10:00,
2013-03-05 01:12:00,32.7,24.0,27.11,SE,135,2.2,2.5,70,0.00,,---,0.00,VWS V14.01,2013-03-05 06:12:00,
2013-03-05 01:14:00,30.9,21.6,27.11,West,270,3.1,3.4,68,0.00,,---,0.00,VWS V14.01,2013-03-05 06:14:00,
2013-03-05 01:15:00,32.7,23.3,27.11,North,0,2.0,2.2,68,0.00,,---,0.00,VWS V14.01,2013-03-05 06:15:00,
2013-03-05 01:16:00,32.7,23.3,27.11,North,0,1.1,2.2,68,0.00,,---,0.00,VWS V14.01,2013-03-05 06:16:00,
2013-03-05 01:18:00,32.5,23.2,27.11,West,270,3.4,3.4,68,0.00,,---,0.00,VWS V14.01,2013-03-05 06:18:00,
2013-03-05 01:20:00,32.5,23.2,27.11,NE,45,0.9,2.2,68,0.00,,---,0.00,VWS V14.01,2013-03-05 06:20:00,
2013-03-05 01:22:00,32.4,23.0,27.11,SSE,158,2.7,2.7,68,0.00,,---,0.00,VWS V14.01,2013-03-05 06:22:00,
2013-03-05 01:24:00,32.4,22.6,27.11,NW,315,1.6,3.6,67,0.00,,---,0.00,VWS V14.01,2013-03-05 06:24:00,
2013-03-05 01:25:00,32.4,22.6,27.11,NNW,338,2.5,2.5,67,0.00,,---,0.00,VWS V14.01,2013-03-05 06:25:00,
2013-03-05 01:26:00,32.4,22.6,27.11,NE,45,0.0,2.5,67,0.00,,---,0.00,VWS V14.01,2013-03-05 06:26:00,
2013-03-05 01:28:00,32.2,22.8,27.11,West,270,3.1,3.1,68,0.00,,---,0.00,VWS V14.01,2013-03-05 06:28:00,
2013-03-05 01:30:00,32.0,22.3,27.11,SSE,158,0.0,0.0,67,0.00,,---,0.00,VWS V14.01,2013-03-05 06:30:00,
2013-03-05 01:32:00,32.0,22.6,27.11,SSE,158,0.9,2.0,68,0.00,,---,0.00,VWS V14.01,2013-03-05 06:32:00,
2013-03-05 01:34:00,32.0,22.3,27.11,NW,315,1.6,1.6,67,0.00,,---,0.00,VWS V14.01,2013-03-05 06:34:00,
2013-03-05 01:35:00,32.0,22.6,27.11,WSW,248,2.7,4.0,68,0.00,,---,0.00,VWS V14.01,2013-03-05 06:35:00,
2013-03-05 01:36:00,32.0,22.6,27.11,West,270,2.5,4.0,68,0.00,,---,0.00,VWS V14.01,2013-03-05 06:36:00,
2013-03-05 01:38:00,32.0,22.6,27.11,North,0,1.6,3.1,68,0.00,,---,0.00,VWS V14.01,2013-03-05 06:38:00,
2013-03-05 01:40:00,32.0,22.3,27.11,NE,45,0.0,1.6,67,0.00,,---,0.00,VWS V14.01,2013-03-05 06:40:00,
2013-03-05 01:42:00,31.8,21.8,27.11,South,180,0.0,1.6,66,0.00,,---,0.00,VWS V14.01,2013-03-05 06:42:00,
2013-03-05 01:44:00,31.8,21.8,27.11,SSE,158,1.3,2.0,66,0.00,,---,0.00,VWS V14.01,2013-03-05 06:44:00,
2013-03-05 01:45:00,31.6,21.2,27.11,NW,315,2.5,2.5,65,0.00,,---,0.00,VWS V14.01,2013-03-05 06:45:00,
2013-03-05 01:46:00,31.1,21.8,27.08,WNW,292,0.9,1.6,68,0.00,,---,0.00,VWS V14.01,2013-03-05 06:46:00,
2013-03-05 01:48:00,31.6,21.2,27.11,NNE,22,2.2,2.5,65,0.00,,---,0.00,VWS V14.01,2013-03-05 06:48:00,
2013-03-05 01:50:00,31.3,20.5,27.11,SSE,158,0.9,1.6,64,0.00,,---,0.00,VWS V14.01,2013-03-05 06:50:00,
2013-03-05 01:52:00,31.3,20.5,27.11,West,270,1.6,1.6,64,0.00,,---,0.00,VWS V14.01,2013-03-05 06:52:00,
2013-03-05 01:54:00,31.3,22.0,27.11,NW,315,1.3,2.5,68,0.00,,---,0.00,VWS V14.01,2013-03-05 06:54:00,
2013-03-05 01:55:00,31.1,21.4,27.11,NW,315,0.0,1.6,67,0.00,,---,0.00,VWS V14.01,2013-03-05 06:55:00,
2013-03-05 01:56:00,31.1,21.4,27.11,WNW,292,0.0,1.6,67,0.00,,---,0.00,VWS V14.01,2013-03-05 06:56:00,
2013-03-05 01:58:00,31.1,21.1,27.11,NE,45,0.0,0.0,66,0.00,,---,0.00,VWS V14.01,2013-03-05 06:58:00,
2013-03-05 02:00:00,31.1,22.1,27.11,West,270,2.2,3.4,69,0.00,,---,0.00,VWS V14.01,2013-03-05 07:00:00,
2013-03-05 02:02:00,31.1,22.1,27.11,WSW,248,0.9,3.4,69,0.00,,---,0.00,VWS V14.01,2013-03-05 07:02:00,
2013-03-05 02:04:00,31.1,22.5,27.11,West,270,2.7,2.7,70,0.00,,---,0.00,VWS V14.01,2013-03-05 07:04:00,
2013-03-05 02:05:00,31.1,22.8,27.11,WNW,292,1.6,2.7,71,0.00,,---,0.00,VWS V14.01,2013-03-05 07:05:00,
2013-03-05 02:06:00,31.1,22.8,27.11,WNW,292,1.6,2.7,71,0.00,,---,0.00,VWS V14.01,2013-03-05 07:06:00,
2013-03-05 02:08:00,31.1,22.5,27.11,NW,315,1.6,1.6,70,0.00,,---,0.00,VWS V14.01,2013-03-05 07:08:00,
2013-03-05 02:10:00,31.1,22.1,27.11,ENE,68,0.0,0.0,69,0.00,,---,0.00,VWS V14.01,2013-03-05 07:10:00,
2013-03-05 02:12:00,30.9,21.6,27.11,SE,135,0.0,0.0,68,0.00,,---,0.00,VWS V14.01,2013-03-05 07:12:00,
2013-03-05 02:14:00,30.9,21.6,27.11,West,270,3.1,3.4,68,0.00,,---,0.00,VWS V14.01,2013-03-05 07:14:00,
2013-03-05 02:15:00,31.1,22.1,27.11,WNW,292,2.0,3.4,69,0.00,,---,0.00,VWS V14.01,2013-03-05 07:15:00,
2013-03-05 02:16:00,30.9,22.0,27.11,NW,315,1.6,3.4,69,0.00,,---,0.00,VWS V14.01,2013-03-05 07:16:00,
2013-03-05 02:17:00,30.9,23.6,27.08,WSW,248,1.3,2.0,74,0.00,,---,0.00,VWS V14.01,2013-03-05 07:17:00,
2013-03-05 02:18:00,30.9,22.0,27.11,North,0,1.3,1.6,69,0.00,,---,0.00,VWS V14.01,2013-03-05 07:18:00,
2013-03-05 02:19:00,31.1,23.5,27.08,East,90,1.3,3.4,73,0.00,,---,0.00,VWS V14.01,2013-03-05 07:19:00,
2013-03-05 02:20:00,30.9,21.6,27.11,WSW,248,1.3,2.0,68,0.00,,---,0.00,VWS V14.01,2013-03-05 07:20:00,
2013-03-05 02:22:00,30.9,22.0,27.11,NNW,338,2.2,3.1,69,0.00,,---,0.00,VWS V14.01,2013-03-05 07:22:00,
2013-03-05 02:23:00,31.3,23.3,27.08,West,270,1.1,1.1,72,0.00,,---,0.00,VWS V14.01,2013-03-05 07:23:00,
2013-03-05 02:24:00,30.9,21.6,27.11,NE,45,4.5,4.5,68,0.00,,---,0.00,VWS V14.01,2013-03-05 07:24:00,
2013-03-05 02:25:00,30.9,21.6,27.11,SW,225,1.3,4.5,68,0.00,,---,0.00,VWS V14.01,2013-03-05 07:25:00,
2013-03-05 02:26:00,31.1,22.1,27.11,SSW,202,2.7,4.5,69,0.00,,---,0.00,VWS V14.01,2013-03-05 07:26:00,
2013-03-05 02:27:00,31.3,22.6,27.08,NE,45,2.5,2.5,70,0.00,,---,0.00,VWS V14.01,2013-03-05 07:27:00,
2013-03-05 02:28:00,31.1,22.1,27.11,East,90,2.0,2.7,69,0.00,,---,0.00,VWS V14.01,2013-03-05 07:28:00,
2013-03-05 02:29:00,31.5,22.8,27.08,NNW,338,3.1,3.1,70,0.00,,---,0.00,VWS V14.01,2013-03-05 07:29:00,
2013-03-05 02:30:00,31.1,21.8,27.11,NNW,338,2.5,2.9,68,0.00,,---,0.00,VWS V14.01,2013-03-05 07:30:00,
2013-03-05 02:31:00,31.5,22.8,27.08,NE,45,1.1,2.9,70,0.00,,---,0.00,VWS V14.01,2013-03-05 07:31:00,
2013-03-05 02:32:00,31.1,22.1,27.11,SW,225,1.1,2.9,69,0.00,,---,0.00,VWS V14.01,2013-03-05 07:32:00,
2013-03-05 02:33:00,31.6,23.3,27.05,WSW,248,2.5,2.5,71,0.00,,---,0.00,VWS V14.01,2013-03-05 07:33:00,
2013-03-05 02:34:00,31.1,21.8,27.08,NE,45,2.0,2.7,68,0.00,,---,0.00,VWS V14.01,2013-03-05 07:34:00,
2013-03-05 02:35:00,31.1,21.4,27.08,East,90,2.2,2.2,67,0.00,,---,0.00,VWS V14.01,2013-03-05 07:35:00,
2013-03-05 02:36:00,31.1,21.4,27.08,East,90,2.2,2.5,67,0.00,,---,0.00,VWS V14.01,2013-03-05 07:36:00,
2013-03-05 02:37:00,31.6,23.3,27.05,NW,315,0.0,1.1,71,0.00,,---,0.00,VWS V14.01,2013-03-05 07:37:00,
2013-03-05 02:38:00,31.6,23.3,27.05,North,0,3.4,3.4,71,0.00,,---,0.00,VWS V14.01,2013-03-05 07:38:00,
2013-03-05 02:39:00,31.6,23.3,27.05,NE,45,3.4,3.4,71,0.00,,---,0.00,VWS V14.01,2013-03-05 07:39:00,
2013-03-05 02:40:00,31.1,21.4,27.08,ENE,68,2.5,4.9,67,0.00,,---,0.00,VWS V14.01,2013-03-05 07:40:00,
2013-03-05 02:41:00,31.6,23.0,27.05,WNW,292,2.9,2.9,70,0.00,,---,0.00,VWS V14.01,2013-03-05 07:41:00,
2013-03-05 02:42:00,31.3,22.0,27.08,SSW,202,2.5,4.9,68,0.00,,---,0.00,VWS V14.01,2013-03-05 07:42:00,
2013-03-05 02:43:00,31.6,23.0,27.05,ENE,68,1.1,2.0,70,0.00,,---,0.00,VWS V14.01,2013-03-05 07:43:00,
2013-03-05 02:44:00,31.1,21.8,27.08,ESE,112,0.0,2.5,68,0.00,,---,0.00,VWS V14.01,2013-03-05 07:44:00,
2013-03-05 02:45:00,31.1,21.8,27.08,WNW,292,1.6,1.6,68,0.00,,---,0.00,VWS V14.01,2013-03-05 07:45:00,
2013-03-05 02:46:00,31.1,21.8,27.08,WNW,292,0.9,1.6,68,0.00,,---,0.00,VWS V14.01,2013-03-05 07:46:00,
2013-03-05 02:47:00,31.8,23.2,27.08,West,270,1.3,2.2,70,0.00,,---,0.00,VWS V14.01,2013-03-05 07:47:00,
2013-03-05 02:48:00,31.1,21.4,27.05,North,0,0.0,0.9,67,0.00,,---,0.00,VWS V14.01,2013-03-05 07:48:00,
2013-03-05 02:49:00,31.8,23.5,27.08,NW,315,1.6,2.0,71,0.00,,---,0.00,VWS V14.01,2013-03-05 07:49:00,
2013-03-05 02:50:00,31.1,21.1,27.05,SSE,158,2.0,2.0,66,0.00,,---,0.00,VWS V14.01,2013-03-05 07:50:00,
2013-03-05 02:52:00,31.1,21.1,27.05,ENE,68,1.3,2.0,66,0.00,,---,0.00,VWS V14.01,2013-03-05 07:52:00,
2013-03-05 02:54:00,31.1,20.7,27.05,ENE,68,0.0,1.3,65,0.00,,---,0.00,VWS V14.01,2013-03-05 07:54:00,
2013-03-05 02:55:00,30.9,20.2,27.05,ENE,68,0.9,2.2,64,0.00,,---,0.00,VWS V14.01,2013-03-05 07:55:00,
2013-03-05 02:56:00,30.9,20.2,27.05,ENE,68,0.0,2.2,64,0.00,,---,0.00,VWS V14.01,2013-03-05 07:56:00,
2013-03-05 02:58:00,30.7,20.0,27.05,WNW,292,0.0,0.0,64,0.00,,---,0.00,VWS V14.01,2013-03-05 07:58:00,
2013-03-05 03:00:00,30.6,20.2,27.05,NNW,338,2.5,2.5,65,0.00,,---,0.00,VWS V14.01,2013-03-05 08:00:00,
2013-03-05 03:02:00,30.6,20.2,27.08,NNW,338,2.7,2.7,65,0.00,,---,0.00,VWS V14.01,2013-03-05 08:02:00,
2013-03-05 03:05:00,30.6,22.0,27.08,WNW,292,2.0,2.7,70,0.00,,---,0.00,VWS V14.01,2013-03-05 08:05:00,
2013-03-05 03:06:00,30.6,22.6,27.08,WNW,292,0.0,2.7,72,0.00,,---,0.00,VWS V14.01,2013-03-05 08:06:00,
2013-03-05 03:08:00,30.6,22.6,27.08,South,180,2.0,2.0,72,0.00,,---,0.00,VWS V14.01,2013-03-05 08:08:00,
2013-03-05 03:10:00,30.6,22.6,27.08,NNW,338,2.5,2.5,72,0.00,,---,0.00,VWS V14.01,2013-03-05 08:10:00,
2013-03-05 03:12:00,30.6,23.0,27.08,SW,225,3.4,3.4,73,0.00,,---,0.00,VWS V14.01,2013-03-05 08:12:00,
2013-03-05 03:14:00,30.7,23.1,27.08,NNW,338,0.0,4.7,73,0.00,,---,0.00,VWS V14.01,2013-03-05 08:14:00,
2013-03-05 03:15:00,30.7,23.1,27.08,WNW,292,3.4,3.4,73,0.00,,---,0.00,VWS V14.01,2013-03-05 08:15:00,
2013-03-05 03:16:00,30.9,23.6,27.08,West,270,2.0,2.0,74,0.00,,---,0.00,VWS V14.01,2013-03-05 08:16:00,
2013-03-05 03:17:00,30.9,23.6,27.08,WSW,248,1.3,2.0,74,0.00,,---,0.00,VWS V14.01,2013-03-05 08:17:00,
2013-03-05 03:18:00,31.1,23.8,27.08,SW,225,3.4,3.4,74,0.00,,---,0.00,VWS V14.01,2013-03-05 08:18:00,
2013-03-05 03:19:00,31.1,23.5,27.08,East,90,1.3,3.4,73,0.00,,---,0.00,VWS V14.01,2013-03-05 08:19:00,
2013-03-05 03:20:00,31.1,23.5,27.08,East,90,1.6,1.6,73,0.00,,---,0.00,VWS V14.01,2013-03-05 08:20:00,
2013-03-05 03:22:00,31.1,23.1,27.08,West,270,0.9,1.6,72,0.00,,---,0.00,VWS V14.01,2013-03-05 08:22:00,
2013-03-05 03:23:00,31.3,23.3,27.08,West,270,1.1,1.1,72,0.00,,---,0.00,VWS V14.01,2013-03-05 08:23:00,
2013-03-05 03:24:00,31.3,23.3,27.08,ENE,68,0.0,1.1,72,0.00,,---,0.00,VWS V14.01,2013-03-05 08:24:00,
2013-03-05 03:25:00,31.3,23.0,27.08,SSE,158,1.6,1.6,71,0.00,,---,0.00,VWS V14.01,2013-03-05 08:25:00,
2013-03-05 03:26:00,31.3,23.0,27.08,SSE,158,0.0,1.6,71,0.00,,---,0.00,VWS V14.01,2013-03-05 08:26:00,
2013-03-05 03:27:00,31.3,22.6,27.08,NE,45,2.5,2.5,70,0.00,,---,0.00,VWS V14.01,2013-03-05 08:27:00,
2013-03-05 03:28:00,31.5,22.8,27.08,NW,315,2.2,2.5,70,0.00,,---,0.00,VWS V14.01,2013-03-05 08:28:00,
2013-03-05 03:29:00,31.5,22.8,27.08,NNW,338,3.1,3.1,70,0.00,,---,0.00,VWS V14.01,2013-03-05 08:29:00,
2013-03-05 03:30:00,31.5,22.8,27.08,North,0,2.9,3.1,70,0.00,,---,0.00,VWS V14.01,2013-03-05 08:30:00,
2013-03-05 03:31:00,31.5,22.8,27.08,NE,45,1.1,2.9,70,0.00,,---,0.00,VWS V14.01,2013-03-05 08:31:00,
2013-03-05 03:32:00,31.5,22.8,27.05,WSW,248,1.3,1.3,70,0.00,,---,0.00,VWS V14.01,2013-03-05 08:32:00,
2013-03-05 03:33:00,31.6,23.3,27.05,WSW,248,2.5,2.5,71,0.00,,---,0.00,VWS V14.01,2013-03-05 08:33:00,
2013-03-05 03:34:00,31.6,23.7,27.05,SE,135,1.1,2.5,72,0.00,,---,0.00,VWS V14.01,2013-03-05 08:34:00,
2013-03-05 03:35:00,31.6,23.7,27.05,WNW,292,1.6,1.6,72,0.00,,---,0.00,VWS V14.01,2013-03-05 08:35:00,
2013-03-05 03:36:00,31.6,23.7,27.05,East,90,1.1,1.6,72,0.00,,---,0.00,VWS V14.01,2013-03-05 08:36:00,
2013-03-05 03:37:00,31.6,23.3,27.05,NW,315,0.0,1.1,71,0.00,,---,0.00,VWS V14.01,2013-03-05 08:37:00,
2013-03-05 03:38:00,31.6,23.3,27.05,North,0,3.4,3.4,71,0.00,,---,0.00,VWS V14.01,2013-03-05 08:38:00,
2013-03-05 03:39:00,31.6,23.3,27.05,NE,45,3.4,3.4,71,0.00,,---,0.00,VWS V14.01,2013-03-05 08:39:00,
2013-03-05 03:40:00,31.6,23.0,27.05,North,0,2.9,3.4,70,0.00,,---,0.00,VWS V14.01,2013-03-05 08:40:00,
2013-03-05 03:41:00,31.6,23.0,27.05,WNW,292,2.9,2.9,70,0.00,,---,0.00,VWS V14.01,2013-03-05 08:41:00,
2013-03-05 03:42:00,31.6,23.0,27.05,ENE,68,2.0,2.9,70,0.00,,---,0.00,VWS V14.01,2013-03-05 08:42:00,
2013-03-05 03:43:00,31.6,23.0,27.05,ENE,68,1.1,2.0,70,0.00,,---,0.00,VWS V14.01,2013-03-05 08:43:00,
2013-03-05 03:44:00,31.8,23.2,27.05,SSW,202,2.0,2.0,70,0.00,,---,0.00,VWS V14.01,2013-03-05 08:44:00,
2013-03-05 03:45:00,31.8,23.5,27.05,East,90,2.0,2.0,71,0.00,,---,0.00,VWS V14.01,2013-03-05 08:45:00,
2013-03-05 03:46:00,31.8,23.5,27.05,ESE,112,2.2,2.2,71,0.00,,---,0.00,VWS V14.01,2013-03-05 08:46:00,
2013-03-05 03:47:00,31.8,23.2,27.08,West,270,1.3,2.2,70,0.00,,---,0.00,VWS V14.01,2013-03-05 08:47:00,
2013-03-05 03:48:00,31.8,23.5,27.08,North,0,2.0,2.0,71,0.00,,---,0.00,VWS V14.01,2013-03-05 08:48:00,
2013-03-05 03:49:00,31.8,23.5,27.08,NW,315,1.6,2.0,71,0.00,,---,0.00,VWS V14.01,2013-03-05 08:49:00,
2013-03-05 03:50:00,31.8,23.5,27.08,WNW,292,0.0,1.6,71,0.00,,---,0.00,VWS V14.01,2013-03-05 08:50:00,
2013-03-05 03:51:00,31.8,23.8,27.08,South,180,0.0,0.0,72,0.00,,---,0.00,VWS V14.01,2013-03-05 08:51:00,